Pasadena, Maryland
Current Conditions -  °F | °C
As of 6:54 AM on Friday 24 Oct 2014 (Local Time) from KBWI Reporting Station
Few Clouds Few Clouds  
Wind Chill: 53°   Ceiling: Unl
Heat Index: 53°   Visibility: 10mi
Dew Point: 43°   Wind: 9mph
Humidity: 69%   Direction: 290°WNW
Pressure: 29.92"   Gusts: NA
Location:  39.11°N, 76.57°W
Report Text: KBWI 241054Z 29008KT 10SM FEW045 12/06 A2992 RMK AO2 SLP132 T01170061
Loading
Personal Weather Stations






























Interactive Weather Map
Tropical Storm Tracking
New forecast layout! Learn more

10-Day Weather Forecast

Advertisements
Track Severe Weather on mobile